Flight Track Log - Related Links

Times and Time Zones

All times are in EST time to prevent confusion due to time zone crossing. See the RPA4220 flight status page for this flight to view local times or setup timezone preferences in your user account.

Time Position Orientation Groundspeed Altitude Reporting Facility
EST Latitude Longitude Course Direction KTS MPH feet Rate Location/Type
Sat 08:15:51 PM 42.0000 -87.9667 153° Southeast 164 189 2,300  Level Chicago TRACON
Sat 08:16:51 PM 41.9667 -88.0000 217° Southwest 220 253 4,100 1,350 Climbing Chicago TRACON
Sat 08:17:51 PM 41.9000 -87.9833 169° South 264 304 5,000 694 Climbing Chicago TRACON
Sat 08:18:52 PM 41.8167 -87.9667 172° South 272 313 5,500 1,683 Climbing Chicago TRACON
Sat 08:20:10 PM 41.7339 -87.8886 145° Southeast 288 331 8,900 2,547 Climbing Chicago Center
Sat 08:21:00 PM 41.5317 -87.6377 153° Southeast  Level FlightAware Approximate
Sat 08:21:11 PM 41.6644 -87.8175 143° Southeast 313 360 11,400  Level Chicago Center
Sat 08:22:12 PM 41.5919 -87.7608 150° Southeast 312 359 13,300 2,164 Climbing Chicago Center
Sat 08:23:13 PM 41.5039 -87.7056 155° Southeast 324 373 15,800 2,164 Climbing Chicago Center
Sat 08:24:14 PM 41.4214 -87.6539 155° Southeast 328 377 17,700 1,525 Climbing Chicago Center
Sat 08:25:15 PM 41.3394 -87.6022 155° Southeast 337 388 18,900 1,377 Climbing Chicago Center
Sat 08:26:16 PM 41.2489 -87.5456 155° Southeast 353 406 20,500 1,033 Climbing Chicago Center
Sat 08:27:17 PM 41.1542 -87.4850 154° Southeast 369 425 21,000 246 Climbing Chicago Center
Sat 08:28:18 PM 41.0531 -87.4217 155° Southeast 393 452 21,000  Level Chicago Center
Sat 08:29:19 PM 40.9528 -87.3594 155° Southeast 397 457 21,000  Level Chicago Center
Sat 08:30:20 PM 40.8525 -87.2986 155° Southeast 394 453 21,000  Level Chicago Center
Sat 08:31:21 PM 40.7536 -87.2364 155° Southeast 394 453 21,000  Level Chicago Center
Sat 08:32:22 PM 40.6356 -87.1631 155° Southeast 391 450 21,000 -197 Level Chicago Center
Sat 08:33:23 PM 40.5367 -87.1022 155° Southeast 389 448 20,600 -1,131 Descending Chicago Center
Sat 08:34:24 PM 40.4494 -87.0492 155° Southeast 391 450 18,700 -1,869 Descending Chicago Center
Sat 08:35:25 PM 40.3556 -86.9922 155° Southeast 374 430 16,800 -1,820 Descending Chicago Center
Sat 08:36:26 PM 40.2650 -86.9394 156° South 358 412 15,000 -1,869 Descending Chicago Center
Sat 08:37:27 PM 40.1583 -86.8778 156° South 350 403 13,000 -1,135 Descending Chicago Center
Sat 08:38:17 PM 40.0869 -86.8350 155° Southeast 352 405 12,900 -703 Descending Indianapolis Center
Sat 08:39:18 PM 40.0028 -86.7864 156° South 342 394 11,700 -1,388 Descending Indianapolis Center
Sat 08:40:18 PM 39.9267 -86.7414 156° South 322 371 10,100 -1,736 Descending Indianapolis Center
Sat 08:41:19 PM 39.8542 -86.6997 156° South 297 342 8,200 -1,820 Descending Indianapolis Center
Sat 08:42:20 PM 39.7825 -86.6594 157° South 281 323 6,400 -1,672 Descending Indianapolis Center
Sat 08:43:21 PM 39.7186 -86.6214 155° Southeast 268 308 4,800 -1,525 Descending Indianapolis Center
Sat 08:44:22 PM 39.6556 -86.5844 156° South 260 299 3,300 -934 Descending Indianapolis Center
Sat 08:45:23 PM 39.5967 -86.5511 156° South 245 282 2,900 -197 Descending Indianapolis Center
Sat 08:46:24 PM 39.5844 -86.4903 105° East 226 260 2,900 50 Level Indianapolis Center
Sat 08:47:24 PM 39.6239 -86.4261 51° Northeast 203 234 3,000 -397 Climbing Indianapolis Center
Sat 08:48:25 PM 39.6592 -86.3806 45° Northeast 188 216 2,100 -836 Descending Indianapolis Center
Sat 08:49:26 PM 39.6872 -86.3453 44° Northeast 162 186 1,300 -689 Descending Indianapolis Center
Sat 08:50:27 PM 39.7119 -86.3139 44° Northeast 139 160 700 -295 Descending Indianapolis Center
Sat 08:51:28 PM 39.7189 -86.3042 47° Northeast 110 127 700  Level Indianapolis Center

Login

Don't have an account? Register now (free) for customized features, flight alerts, and more!